Terminal Aerodrome Forecast
Issued by NWS

Home | Current Version | Previous Version | Text Only | Print | Product List | Glossary On
Versions: 1 2 3 4 5 6 7 8 9 10 11 12 13 14 15 16 17 18 19 20 21 22 23
520
FTUS44 KCRP 251251 AAA
TAFALI
TAF AMD
KALI 251251Z 2513/2612 17004KT 6SM BR BKN012
     FM251400 24007KT 5SM BR BKN018
     FM251600 34007KT P6SM BKN025
     FM251800 02007KT P6SM SCT030
     FM252300 11007KT P6SM SKC
     FM260800 15005KT 3SM BR BKN005 OVC015=

USA.gov is the U.S. government's official web portal to all federal, state and local government web resources and services.